Carpio, North Dakota
Current Conditions -  °F | °C
As of 4:58 AM on Thursday 23 Oct 2014 (Local Time) from KMIB Reporting Station
Clear Clear  
Wind Chill: 37°   Ceiling: Unl
Heat Index: 43°   Visibility: 10mi
Dew Point: 35°   Wind: 13mph
Humidity: 72%   Direction: 240°WSW
Pressure: 29.83"   Gusts: NA
Location:  48.44°N, 101.71°W
Report Text: KMIB 230958Z AUTO 24011KT 10SM CLR 06/02 A2983 RMK AO2 SLP112 T00630016 $
Loading
Personal Weather Stations






























Interactive Weather Map
Tropical Storm Tracking
New forecast layout! Learn more

10-Day Weather Forecast

Advertisements
Track Severe Weather on mobile